createdAt,value
2022-08-24T00:00:48.624Z,7.88
2022-08-24T00:03:35.916Z,11.75
2022-08-24T00:06:23.614Z,8.15
2022-08-24T00:09:09.955Z,11.57
2022-08-24T00:11:56.209Z,8.38
2022-08-24T00:14:43.781Z,8.30
2022-08-24T00:17:30.097Z,10.75
2022-08-24T00:20:16.890Z,8.13
2022-08-24T00:23:03.545Z,9.63
2022-08-24T00:25:49.734Z,9.13
2022-08-24T00:28:37.252Z,7.90
2022-08-24T00:31:23.818Z,9.50
2022-08-24T00:34:10.518Z,9.55
2022-08-24T00:36:56.720Z,7.60
2022-08-24T00:39:42.642Z,9.43
2022-08-24T00:42:28.745Z,8.63
2022-08-24T00:45:16.350Z,7.10
2022-08-24T00:48:07.593Z,12.20
2022-08-24T00:50:56.742Z,8.02
2022-08-24T00:53:52.985Z,7.85
2022-08-24T00:56:45.553Z,10.20
2022-08-24T00:59:37.256Z,11.93
2022-08-24T01:02:31.781Z,10.65
2022-08-24T01:05:19.232Z,7.15
2022-08-24T01:08:08.988Z,14.35
2022-08-24T01:11:08.370Z,7.93
2022-08-24T01:13:58.008Z,9.65
2022-08-24T01:17:02.748Z,10.23
2022-08-24T01:19:52.605Z,8.57
2022-08-24T01:23:00.613Z,8.13
2022-08-24T01:25:46.953Z,7.25
2022-08-24T01:28:34.544Z,13.30
2022-08-24T01:31:25.163Z,8.73
2022-08-24T01:34:13.088Z,10.80
2022-08-24T01:37:00.321Z,7.13
2022-08-24T01:39:48.571Z,7.78
2022-08-24T01:42:36.043Z,7.65
2022-08-24T01:48:07.837Z,15.23
2022-08-24T01:50:53.944Z,7.32
2022-08-24T01:53:42.519Z,6.53
2022-08-24T01:56:29.080Z,10.70
2022-08-24T01:59:17.172Z,12.68
2022-08-24T02:02:19.558Z,7.95
2022-08-24T02:05:06.004Z,6.85
2022-08-24T02:07:52.450Z,8.65
2022-08-24T02:10:40.983Z,10.13
2022-08-24T02:13:39.670Z,6.90
2022-08-24T02:16:27.143Z,6.78
2022-08-24T02:19:13.676Z,7.55
2022-08-24T02:22:00.810Z,7.43
2022-08-24T02:24:47.536Z,7.00
2022-08-24T02:27:34.269Z,7.10
2022-08-24T02:30:20.665Z,7.65
2022-08-24T02:33:08.263Z,7.22
2022-08-24T02:35:55.120Z,9.43
2022-08-24T02:38:41.419Z,8.55
2022-08-24T02:41:33.514Z,7.70
2022-08-24T02:44:19.793Z,10.10
2022-08-24T02:47:07.906Z,9.88
2022-08-24T02:49:54.408Z,7.20
2022-08-24T02:52:42.153Z,7.37
2022-08-24T02:55:28.317Z,8.02
2022-08-24T02:58:16.472Z,6.68
2022-08-24T03:01:04.278Z,7.78
2022-08-24T03:04:01.108Z,9.30
2022-08-24T03:06:47.431Z,9.88
2022-08-24T03:09:33.575Z,9.52
2022-08-24T03:12:19.824Z,7.93
2022-08-24T03:15:10.558Z,8.35
2022-08-24T03:17:56.994Z,9.35
2022-08-24T03:20:43.974Z,9.05
2022-08-24T03:23:31.993Z,10.75
2022-08-24T03:26:22.930Z,9.07
2022-08-24T03:29:09.600Z,6.93
2022-08-24T03:31:57.413Z,7.60
2022-08-24T03:34:46.352Z,6.45
2022-08-24T03:37:32.917Z,8.63
2022-08-24T03:40:22.982Z,6.85
2022-08-24T03:43:34.071Z,8.15
2022-08-24T03:46:28.666Z,11.80
2022-08-24T03:49:14.874Z,5.30
2022-08-24T03:54:48.187Z,8.73
2022-08-24T03:57:34.981Z,7.38
2022-08-24T04:00:22.141Z,7.80
2022-08-24T04:03:16.241Z,8.45
2022-08-24T04:06:02.437Z,8.23
2022-08-24T04:08:52.262Z,7.05
2022-08-24T04:11:41.491Z,8.55
2022-08-24T04:14:28.085Z,6.75
2022-08-24T04:17:20.669Z,9.50
2022-08-24T04:20:08.940Z,8.00
2022-08-24T04:22:58.298Z,7.53
2022-08-24T04:25:47.141Z,7.13
2022-08-24T04:28:33.776Z,7.45
2022-08-24T04:31:20.892Z,8.23
2022-08-24T04:34:08.950Z,9.57
2022-08-24T04:36:56.948Z,10.02
2022-08-24T04:39:42.880Z,9.55
2022-08-24T04:42:40.862Z,7.88
2022-08-24T04:45:28.854Z,8.82
2022-08-24T04:48:16.094Z,8.93
2022-08-24T04:51:04.772Z,10.10
2022-08-24T04:53:52.077Z,8.27
2022-08-24T04:56:38.362Z,9.30
2022-08-24T04:59:24.806Z,8.68
2022-08-24T05:02:12.306Z,9.38
2022-08-24T05:04:59.318Z,13.15
2022-08-24T05:07:45.586Z,13.00
2022-08-24T05:10:33.935Z,8.85
2022-08-24T05:13:20.162Z,8.60
2022-08-24T05:16:13.826Z,8.95
2022-08-24T05:19:01.555Z,12.27
2022-08-24T05:21:48.387Z,8.40
2022-08-24T05:24:34.877Z,9.70
2022-08-24T05:30:11.881Z,8.95
2022-08-24T05:35:44.619Z,9.45
2022-08-24T05:38:33.351Z,9.30
2022-08-24T05:41:20.909Z,10.07
2022-08-24T05:44:15.919Z,7.78
2022-08-24T05:47:03.354Z,7.97
2022-08-24T05:49:52.992Z,10.20
2022-08-24T05:52:39.797Z,10.10
2022-08-24T05:55:25.779Z,8.70
2022-08-24T05:58:15.264Z,11.70
2022-08-24T06:01:14.526Z,8.80
2022-08-24T06:04:01.227Z,7.15
2022-08-24T06:06:48.564Z,7.38
2022-08-24T06:09:36.320Z,10.00
2022-08-24T06:12:22.846Z,8.93
2022-08-24T06:15:09.200Z,6.85
2022-08-24T06:17:55.062Z,6.85
2022-08-24T06:20:42.521Z,5.80
2022-08-24T06:23:28.816Z,7.90
2022-08-24T06:26:39.690Z,8.35
2022-08-24T06:29:25.774Z,5.88
2022-08-24T06:32:15.997Z,6.65
2022-08-24T06:35:02.865Z,6.32
2022-08-24T06:37:49.849Z,5.85
2022-08-24T06:40:36.161Z,6.40
2022-08-24T06:43:24.457Z,6.55
2022-08-24T06:46:12.914Z,5.25
2022-08-24T06:49:02.163Z,6.03
2022-08-24T06:51:50.790Z,5.10
2022-08-24T06:54:38.216Z,4.65
2022-08-24T06:57:25.325Z,5.38
2022-08-24T07:00:12.797Z,4.22
2022-08-24T07:03:00.703Z,4.05
2022-08-24T07:05:52.108Z,4.20
2022-08-24T07:08:53.592Z,5.10
2022-08-24T07:11:39.959Z,4.18
2022-08-24T07:14:26.940Z,3.75
2022-08-24T07:17:13.394Z,4.30
2022-08-24T07:20:00.170Z,3.95
2022-08-24T07:26:20.943Z,5.68
2022-08-24T07:29:43.708Z,4.20
2022-08-24T07:32:23.563Z,6.63
2022-08-24T07:35:12.214Z,6.63
2022-08-24T07:37:59.435Z,6.00
2022-08-24T07:41:09.501Z,7.32
2022-08-24T07:43:55.036Z,6.93
2022-08-24T07:46:41.913Z,7.85
2022-08-24T07:49:36.953Z,5.72
2022-08-24T07:52:24.898Z,5.65
2022-08-24T07:55:12.170Z,3.17
2022-08-24T07:57:59.528Z,3.30
2022-08-24T08:00:47.870Z,5.95
2022-08-24T08:03:34.642Z,5.25
2022-08-24T08:06:20.517Z,4.68
2022-08-24T08:09:09.714Z,4.63
2022-08-24T08:14:42.405Z,5.40
2022-08-24T08:17:28.460Z,6.25
2022-08-24T08:20:15.425Z,6.07
2022-08-24T08:23:24.415Z,3.75
2022-08-24T08:26:22.335Z,4.13
2022-08-24T08:29:32.264Z,3.83
2022-08-24T08:32:20.129Z,3.92
2022-08-24T08:35:09.229Z,6.05
2022-08-24T08:37:57.157Z,4.50
2022-08-24T08:41:04.748Z,7.57
2022-08-24T08:44:20.208Z,4.60
2022-08-24T08:47:30.658Z,4.60
2022-08-24T08:50:39.859Z,6.03
2022-08-24T08:53:54.326Z,4.47
2022-08-24T08:56:58.560Z,4.95
2022-08-24T09:00:10.036Z,6.20
2022-08-24T09:03:42.918Z,3.80
2022-08-24T09:07:35.501Z,3.72
2022-08-24T09:11:15.059Z,4.85
2022-08-24T09:14:17.359Z,4.05
2022-08-24T09:17:22.233Z,4.10
2022-08-24T09:20:21.808Z,3.80
2022-08-24T09:23:21.052Z,5.57
2022-08-24T09:26:38.462Z,5.00
2022-08-24T09:29:53.667Z,4.93
2022-08-24T09:32:58.692Z,6.43
2022-08-24T09:36:07.610Z,4.35
2022-08-24T09:39:07.553Z,4.10
2022-08-24T09:42:18.560Z,5.47
2022-08-24T09:45:25.324Z,4.50
2022-08-24T09:48:36.729Z,3.47
2022-08-24T09:52:15.681Z,4.20
2022-08-24T09:55:10.627Z,5.30
2022-08-24T09:58:00.856Z,3.20
2022-08-24T10:01:11.465Z,4.93
2022-08-24T10:04:31.627Z,3.33
2022-08-24T10:07:17.825Z,4.00
2022-08-24T10:10:33.870Z,4.27
2022-08-24T10:13:47.724Z,3.20
2022-08-24T10:16:39.649Z,4.05
2022-08-24T10:19:46.813Z,2.92
2022-08-24T10:22:50.645Z,6.28
2022-08-24T10:25:43.286Z,3.28
2022-08-24T10:28:39.904Z,3.15
2022-08-24T10:32:07.636Z,3.17
2022-08-24T10:35:02.073Z,3.40
2022-08-24T10:38:37.584Z,4.22
2022-08-24T10:41:48.754Z,3.40
2022-08-24T10:44:58.310Z,2.95
2022-08-24T10:48:24.958Z,4.00
2022-08-24T10:51:47.645Z,3.05
2022-08-24T10:54:35.315Z,3.15
2022-08-24T10:57:24.033Z,3.72
2022-08-24T11:00:23.233Z,4.68
2022-08-24T11:03:12.029Z,2.50
2022-08-24T11:05:58.245Z,2.55
2022-08-24T11:11:42.621Z,3.65
2022-08-24T11:14:31.893Z,4.13
2022-08-24T11:17:23.561Z,3.03
2022-08-24T11:20:36.563Z,4.35
2022-08-24T11:23:32.349Z,3.00
2022-08-24T11:26:22.590Z,2.70
2022-08-24T11:29:08.418Z,4.82
2022-08-24T11:31:54.653Z,3.15
2022-08-24T11:34:46.855Z,3.28
2022-08-24T11:37:37.313Z,3.15
2022-08-24T11:40:33.897Z,4.15
2022-08-24T11:43:29.218Z,5.28
2022-08-24T11:46:40.507Z,3.17
2022-08-24T11:49:45.518Z,3.47
2022-08-24T11:52:34.382Z,2.50
2022-08-24T11:55:47.361Z,3.30
2022-08-24T11:58:55.222Z,2.70
2022-08-24T12:02:03.635Z,2.60
2022-08-24T12:05:18.470Z,4.78
2022-08-24T12:08:17.425Z,4.93
2022-08-24T12:11:12.235Z,2.35
2022-08-24T12:14:43.170Z,3.15
2022-08-24T12:17:51.156Z,4.13
2022-08-24T12:20:41.094Z,2.50
2022-08-24T12:23:40.800Z,3.00
2022-08-24T12:26:37.037Z,2.95
2022-08-24T12:29:36.159Z,2.30
2022-08-24T12:32:29.896Z,2.58
2022-08-24T12:35:23.913Z,2.17
2022-08-24T12:38:27.936Z,2.22
2022-08-24T12:41:29.289Z,2.50
2022-08-24T12:44:17.022Z,1.75
2022-08-24T12:47:03.111Z,2.45
2022-08-24T12:50:02.270Z,2.30
2022-08-24T12:52:57.577Z,3.88
2022-08-24T12:56:08.027Z,2.33
2022-08-24T12:59:12.312Z,3.22
2022-08-24T13:02:03.468Z,2.55
2022-08-24T13:04:49.438Z,3.22
2022-08-24T13:07:42.218Z,2.33
2022-08-24T13:10:40.258Z,3.05
2022-08-24T13:14:05.733Z,6.70
2022-08-24T13:16:57.515Z,3.20
2022-08-24T13:19:46.377Z,3.63
2022-08-24T13:22:47.497Z,2.25
2022-08-24T13:25:50.601Z,2.10
2022-08-24T13:28:44.214Z,2.65
2022-08-24T13:31:42.249Z,2.95
2022-08-24T13:34:44.709Z,1.70
2022-08-24T13:37:30.913Z,6.05
2022-08-24T13:40:27.746Z,5.97
2022-08-24T13:43:31.492Z,2.13
2022-08-24T13:46:41.891Z,1.90
2022-08-24T13:49:41.047Z,2.17
2022-08-24T13:52:39.630Z,3.78
2022-08-24T13:55:34.708Z,1.90
2022-08-24T13:58:23.636Z,3.05
2022-08-24T14:01:25.432Z,1.80
2022-08-24T14:04:21.047Z,2.10
2022-08-24T14:07:31.747Z,2.33
2022-08-24T14:10:33.169Z,1.85
2022-08-24T14:13:35.723Z,5.65
2022-08-24T14:17:19.582Z,1.80
2022-08-24T14:20:30.580Z,1.80
2022-08-24T14:23:44.317Z,2.00
2022-08-24T14:26:43.230Z,2.80
2022-08-24T14:29:33.068Z,1.65
2022-08-24T14:32:30.005Z,5.03
2022-08-24T14:38:20.286Z,10.93
2022-08-24T14:41:26.042Z,1.75
2022-08-24T14:44:30.116Z,4.35
2022-08-24T14:47:51.115Z,2.08
2022-08-24T14:51:11.282Z,1.98
2022-08-24T14:54:09.740Z,2.50
2022-08-24T14:57:34.114Z,2.95
2022-08-24T15:00:44.776Z,2.72
2022-08-24T15:03:52.470Z,4.55
2022-08-24T15:06:50.010Z,2.03
2022-08-24T15:12:51.077Z,3.13
2022-08-24T15:15:55.594Z,1.85
2022-08-24T15:18:54.213Z,2.83
2022-08-24T15:21:57.882Z,1.80
2022-08-24T15:24:53.068Z,2.20
2022-08-24T15:28:00.234Z,5.45
2022-08-24T15:30:55.909Z,1.90
2022-08-24T15:34:14.605Z,1.90
2022-08-24T15:37:01.594Z,3.05
2022-08-24T15:39:47.982Z,2.17
2022-08-24T15:42:36.947Z,2.03
2022-08-24T15:45:23.940Z,1.95
2022-08-24T15:48:13.606Z,1.77
2022-08-24T15:51:01.093Z,1.80
2022-08-24T15:53:47.810Z,1.55
2022-08-24T15:56:43.914Z,2.15
2022-08-24T16:00:44.847Z,6.23
2022-08-24T16:03:48.061Z,6.32
2022-08-24T16:06:33.938Z,2.92
2022-08-24T16:09:22.352Z,1.80
2022-08-24T16:12:16.552Z,2.08
2022-08-24T16:15:16.895Z,1.63
2022-08-24T16:18:03.177Z,2.45
2022-08-24T16:20:51.002Z,1.90
2022-08-24T16:23:37.065Z,1.92
2022-08-24T16:26:46.629Z,3.50
2022-08-24T16:29:39.085Z,1.80
2022-08-24T16:32:45.587Z,2.38
2022-08-24T16:35:38.751Z,2.15
2022-08-24T16:38:25.978Z,1.80
2022-08-24T16:41:12.483Z,2.00
2022-08-24T16:44:00.088Z,2.25
2022-08-24T16:46:48.180Z,2.60
2022-08-24T16:49:34.857Z,1.60
2022-08-24T16:52:21.153Z,1.80
2022-08-24T16:55:07.427Z,2.28
2022-08-24T16:57:53.528Z,1.85
2022-08-24T17:00:39.433Z,1.93
2022-08-24T17:03:25.559Z,2.47
2022-08-24T17:06:12.516Z,1.60
2022-08-24T17:08:58.974Z,2.00
2022-08-24T17:11:46.011Z,1.85
2022-08-24T17:14:31.913Z,1.70
2022-08-24T17:17:23.001Z,2.73
2022-08-24T17:20:11.119Z,2.15
2022-08-24T17:22:57.884Z,2.00
2022-08-24T17:25:44.803Z,1.65
2022-08-24T17:28:40.056Z,3.20
2022-08-24T17:31:26.427Z,2.03
2022-08-24T17:34:12.869Z,1.75
2022-08-24T17:36:59.837Z,1.60
2022-08-24T17:39:46.557Z,1.92
2022-08-24T17:45:38.044Z,5.35
2022-08-24T17:48:26.557Z,1.77
2022-08-24T17:51:13.569Z,2.15
2022-08-24T17:54:00.019Z,2.47
2022-08-24T17:56:48.787Z,1.90
2022-08-24T17:59:35.885Z,1.85
2022-08-24T18:02:22.826Z,3.08
2022-08-24T18:05:12.243Z,2.30
2022-08-24T18:07:59.338Z,4.07
2022-08-24T18:10:45.521Z,2.78
2022-08-24T18:13:33.970Z,1.90
2022-08-24T18:16:22.185Z,4.15
2022-08-24T18:19:11.732Z,1.98
2022-08-24T18:21:57.788Z,2.45
2022-08-24T18:24:45.127Z,3.58
2022-08-24T18:27:33.478Z,3.22
2022-08-24T18:30:30.401Z,2.03
2022-08-24T18:33:17.509Z,2.60
2022-08-24T18:36:03.768Z,2.78
2022-08-24T18:38:49.914Z,1.98
2022-08-24T18:41:39.396Z,2.40
2022-08-24T18:44:31.468Z,2.05
2022-08-24T18:47:18.291Z,2.63
2022-08-24T18:50:07.444Z,2.88
2022-08-24T18:52:54.421Z,2.30
2022-08-24T18:55:42.843Z,4.07
2022-08-24T18:58:29.016Z,3.58
2022-08-24T19:01:15.588Z,2.75
2022-08-24T19:04:09.476Z,3.90
2022-08-24T19:06:58.221Z,3.13
2022-08-24T19:09:44.510Z,2.73
2022-08-24T19:12:33.941Z,3.03
2022-08-24T19:15:34.636Z,5.80
2022-08-24T19:18:26.722Z,6.53
2022-08-24T19:21:12.996Z,2.75
2022-08-24T19:24:00.599Z,2.78
2022-08-24T19:26:47.292Z,2.45
2022-08-24T19:30:02.109Z,2.38
2022-08-24T19:32:41.818Z,3.22
2022-08-24T19:38:13.914Z,2.63
2022-08-24T19:41:00.797Z,4.20
2022-08-24T19:44:10.375Z,6.63
2022-08-24T19:46:57.371Z,2.53
2022-08-24T19:49:43.966Z,3.03
2022-08-24T19:52:32.461Z,3.40
2022-08-24T19:55:18.867Z,2.85
2022-08-24T19:58:08.662Z,2.80
2022-08-24T20:01:03.853Z,5.47
2022-08-24T20:03:51.362Z,2.30
2022-08-24T20:06:40.877Z,2.88
2022-08-24T20:09:28.780Z,2.70
2022-08-24T20:12:15.002Z,2.75
2022-08-24T20:15:01.208Z,3.42
2022-08-24T20:17:48.668Z,2.75
2022-08-24T20:20:34.730Z,5.03
2022-08-24T20:23:21.025Z,6.55
2022-08-24T20:26:11.291Z,3.03
2022-08-24T20:28:59.023Z,2.53
2022-08-24T20:31:46.784Z,4.13
2022-08-24T20:34:36.842Z,3.63
2022-08-24T20:37:26.995Z,4.90
2022-08-24T20:40:17.252Z,4.18
2022-08-24T20:43:03.810Z,5.03
2022-08-24T20:45:51.810Z,2.90
2022-08-24T20:48:43.000Z,3.42
2022-08-24T20:51:29.672Z,3.22
2022-08-24T20:54:15.841Z,3.40
2022-08-24T20:57:02.063Z,4.10
2022-08-24T20:59:48.349Z,4.82
2022-08-24T21:02:34.217Z,4.03
2022-08-24T21:05:21.473Z,7.60
2022-08-24T21:08:08.341Z,3.15
2022-08-24T21:13:41.186Z,4.97
2022-08-24T21:16:28.128Z,3.60
2022-08-24T21:22:04.410Z,5.70
2022-08-24T21:24:50.505Z,4.78
2022-08-24T21:27:39.241Z,4.18
2022-08-24T21:30:25.422Z,3.72
2022-08-24T21:33:29.920Z,4.00
2022-08-24T21:36:16.867Z,4.00
2022-08-24T21:39:08.793Z,4.63
2022-08-24T21:41:57.020Z,4.78
2022-08-24T21:44:43.471Z,4.40
2022-08-24T21:47:29.560Z,4.30
2022-08-24T21:50:16.893Z,5.17
2022-08-24T21:53:03.405Z,3.92
2022-08-24T21:55:52.822Z,4.35
2022-08-24T21:58:39.107Z,4.45
2022-08-24T22:01:25.142Z,4.80
2022-08-24T22:04:12.313Z,5.00
2022-08-24T22:06:59.297Z,5.20
2022-08-24T22:12:31.520Z,5.03
2022-08-24T22:15:18.595Z,5.63
2022-08-24T22:18:09.589Z,5.10
2022-08-24T22:20:55.734Z,7.00
2022-08-24T22:23:42.018Z,5.32
2022-08-24T22:26:29.317Z,5.93
2022-08-24T22:29:15.273Z,9.07
2022-08-24T22:32:01.737Z,5.32
2022-08-24T22:34:47.720Z,5.88
2022-08-24T22:37:34.149Z,6.50
2022-08-24T22:40:20.444Z,6.22
2022-08-24T22:43:06.724Z,6.38
2022-08-24T22:45:52.636Z,6.07
2022-08-24T22:48:38.670Z,5.17
2022-08-24T22:51:24.722Z,5.00
2022-08-24T22:54:11.658Z,7.63
2022-08-24T22:56:57.838Z,7.90
2022-08-24T22:59:44.098Z,5.30
2022-08-24T23:02:30.475Z,5.13
2022-08-24T23:05:16.481Z,6.45
2022-08-24T23:08:02.665Z,5.13
2022-08-24T23:13:39.773Z,5.72
2022-08-24T23:16:27.264Z,8.05
2022-08-24T23:19:32.260Z,6.05
2022-08-24T23:22:20.231Z,5.70
2022-08-24T23:25:09.642Z,7.15
2022-08-24T23:27:55.686Z,5.50
2022-08-24T23:30:41.572Z,6.23
2022-08-24T23:33:28.713Z,7.17
2022-08-24T23:36:21.530Z,7.50
2022-08-24T23:39:09.412Z,6.13
2022-08-24T23:41:55.684Z,6.15
2022-08-24T23:44:42.312Z,8.13
2022-08-24T23:47:28.586Z,5.97
2022-08-24T23:50:17.443Z,9.45
2022-08-24T23:53:03.844Z,6.45
2022-08-24T23:55:51.594Z,6.97
2022-08-24T23:58:40.830Z,6.38
